createdAt,value
2023-03-16T00:02:41.379Z,2.01
2023-03-16T00:07:45.809Z,1.98
2023-03-16T00:12:54.445Z,1.95
2023-03-16T00:18:00.773Z,1.92
2023-03-16T00:23:05.998Z,1.90
2023-03-16T00:28:24.802Z,1.87
2023-03-16T00:33:34.844Z,1.83
2023-03-16T00:38:41.238Z,1.83
2023-03-16T00:43:47.058Z,1.81
2023-03-16T00:48:55.373Z,1.77
2023-03-16T00:53:59.848Z,1.74
2023-03-16T00:59:07.390Z,1.73
2023-03-16T01:04:14.719Z,1.70
2023-03-16T01:09:20.680Z,1.65
2023-03-16T01:14:28.997Z,1.64
2023-03-16T01:19:37.613Z,1.62
2023-03-16T01:24:45.803Z,1.61
2023-03-16T01:29:52.014Z,1.61
2023-03-16T01:34:56.726Z,1.62
2023-03-16T01:40:03.460Z,1.62
2023-03-16T01:45:41.834Z,1.60
2023-03-16T01:56:20.358Z,1.54
2023-03-16T02:01:28.789Z,1.56
2023-03-16T02:06:38.457Z,1.55
2023-03-16T02:11:45.418Z,1.52
2023-03-16T02:16:53.111Z,1.51
2023-03-16T02:22:03.278Z,1.48
2023-03-16T02:27:10.845Z,1.45
2023-03-16T02:32:21.738Z,1.43
2023-03-16T02:37:27.561Z,1.41
2023-03-16T02:42:35.688Z,1.39
2023-03-16T02:47:47.297Z,1.36
2023-03-16T02:52:55.062Z,1.35
2023-03-16T02:58:00.165Z,1.32
2023-03-16T03:03:21.782Z,1.32
2023-03-16T03:08:34.587Z,1.26
2023-03-16T03:13:44.649Z,1.26
2023-03-16T03:18:53.304Z,1.27
2023-03-16T03:24:03.134Z,1.27
2023-03-16T03:29:10.322Z,1.23
2023-03-16T03:34:18.450Z,1.24
2023-03-16T03:39:26.625Z,1.24
2023-03-16T03:44:34.771Z,1.23
2023-03-16T03:49:52.431Z,1.20
2023-03-16T03:54:58.595Z,1.21
2023-03-16T04:00:09.237Z,1.19
2023-03-16T04:05:20.495Z,1.19
2023-03-16T04:10:24.846Z,1.18
2023-03-16T04:15:30.865Z,1.20
2023-03-16T04:20:38.670Z,1.19
2023-03-16T04:25:49.819Z,1.18
2023-03-16T04:30:54.999Z,1.18
2023-03-16T04:36:04.227Z,1.19
2023-03-16T04:41:10.353Z,1.19
2023-03-16T04:46:16.993Z,1.20
2023-03-16T04:51:25.191Z,1.19
2023-03-16T04:56:35.026Z,1.20
2023-03-16T05:01:50.971Z,1.19
2023-03-16T05:06:58.382Z,1.18
2023-03-16T05:12:11.510Z,1.18
2023-03-16T05:17:19.448Z,1.16
2023-03-16T05:22:28.817Z,1.17
2023-03-16T05:27:46.547Z,1.16
2023-03-16T05:32:55.350Z,1.18
2023-03-16T05:38:03.932Z,1.21
2023-03-16T05:43:10.888Z,1.26
2023-03-16T05:48:16.248Z,1.30
2023-03-16T05:53:31.179Z,1.35
2023-03-16T05:58:38.924Z,1.42
2023-03-16T06:03:45.472Z,1.48
2023-03-16T06:08:56.764Z,1.58
2023-03-16T06:14:09.354Z,1.66
2023-03-16T06:19:15.979Z,1.75
2023-03-16T06:24:22.160Z,1.86
2023-03-16T06:29:33.563Z,1.99
2023-03-16T06:34:39.464Z,2.12
2023-03-16T06:39:48.477Z,2.47
2023-03-16T06:44:53.499Z,2.67
2023-03-16T06:50:04.539Z,4.03
2023-03-16T06:55:17.979Z,4.66
2023-03-16T07:00:23.554Z,6.14
2023-03-16T07:05:32.125Z,8.25
2023-03-16T07:10:45.456Z,9.33
2023-03-16T07:15:54.223Z,10.84
2023-03-16T07:21:02.046Z,10.56
2023-03-16T07:26:10.398Z,12.89
2023-03-16T07:31:16.906Z,14.47
2023-03-16T07:36:22.457Z,14.96
2023-03-16T07:41:37.861Z,14.84
2023-03-16T07:46:43.311Z,14.41
2023-03-16T07:51:51.345Z,14.65
2023-03-16T07:56:58.505Z,14.84
2023-03-16T08:02:03.656Z,14.67
2023-03-16T08:07:11.706Z,13.71
2023-03-16T08:12:20.211Z,14.51
2023-03-16T08:17:26.834Z,14.49
2023-03-16T08:22:33.697Z,14.65
2023-03-16T08:27:43.411Z,13.80
2023-03-16T08:32:48.004Z,13.40
2023-03-16T08:37:57.223Z,14.36
2023-03-16T08:43:04.293Z,16.18
2023-03-16T08:48:13.359Z,16.55
2023-03-16T08:53:17.712Z,15.46
2023-03-16T08:58:29.143Z,14.15
2023-03-16T09:03:35.369Z,13.70
2023-03-16T09:08:40.944Z,13.47
2023-03-16T09:13:48.932Z,14.81
2023-03-16T09:18:56.398Z,13.98
2023-03-16T09:24:00.725Z,13.69
2023-03-16T09:29:08.105Z,13.58
2023-03-16T09:34:13.942Z,13.44
2023-03-16T09:39:20.033Z,13.20
2023-03-16T09:44:43.397Z,13.08
2023-03-16T09:49:59.330Z,12.99
2023-03-16T09:55:13.582Z,12.85
2023-03-16T10:00:26.117Z,12.65
2023-03-16T10:05:33.658Z,12.72
2023-03-16T10:10:52.045Z,12.50
2023-03-16T10:16:03.975Z,12.40
2023-03-16T10:21:15.290Z,11.94
2023-03-16T10:26:29.346Z,12.01
2023-03-16T10:31:38.503Z,11.79
2023-03-16T10:36:48.584Z,11.73
2023-03-16T10:42:00.815Z,11.48
2023-03-16T10:47:08.916Z,11.45
2023-03-16T10:52:20.909Z,11.50
2023-03-16T10:57:33.998Z,11.56
2023-03-16T11:02:41.528Z,11.38
2023-03-16T11:07:59.252Z,11.31
2023-03-16T11:13:16.995Z,11.20
2023-03-16T11:18:37.287Z,11.06
2023-03-16T11:23:46.240Z,11.15
2023-03-16T11:28:59.401Z,11.10
2023-03-16T11:34:20.127Z,11.16
2023-03-16T11:39:38.439Z,11.09
2023-03-16T11:44:50.604Z,11.01
2023-03-16T11:50:06.232Z,11.04
2023-03-16T11:55:25.320Z,10.98
2023-03-16T12:00:38.651Z,11.04
2023-03-16T12:06:22.368Z,10.93
2023-03-16T12:11:32.386Z,10.90
2023-03-16T12:16:49.583Z,11.08
2023-03-16T12:22:07.014Z,11.11
2023-03-16T12:27:30.599Z,11.07
2023-03-16T12:33:01.579Z,10.99
2023-03-16T12:38:32.295Z,11.16
2023-03-16T12:43:50.275Z,11.08
2023-03-16T12:49:05.946Z,11.09
2023-03-16T12:54:24.185Z,11.08
2023-03-16T12:59:40.708Z,11.07
2023-03-16T13:04:51.795Z,11.02
2023-03-16T13:10:05.767Z,10.98
2023-03-16T13:15:33.031Z,10.94
2023-03-16T13:20:54.805Z,10.93
2023-03-16T13:26:28.866Z,10.86
2023-03-16T13:31:42.732Z,10.87
2023-03-16T13:36:47.735Z,10.87
2023-03-16T13:42:18.287Z,10.86
2023-03-16T13:47:28.345Z,10.89
2023-03-16T13:52:37.292Z,10.88
2023-03-16T13:57:45.643Z,10.86
2023-03-16T14:02:54.479Z,10.82
2023-03-16T14:08:01.718Z,10.77
2023-03-16T14:13:27.733Z,10.71
2023-03-16T14:18:37.810Z,10.58
2023-03-16T14:23:46.648Z,10.63
2023-03-16T14:29:06.175Z,10.68
2023-03-16T14:34:27.385Z,10.64
2023-03-16T14:39:36.900Z,10.56
2023-03-16T14:44:44.218Z,10.54
2023-03-16T14:49:49.810Z,10.52
2023-03-16T14:54:57.102Z,10.55
2023-03-16T15:00:03.550Z,10.52
2023-03-16T15:05:10.149Z,10.48
2023-03-16T15:10:25.470Z,10.44
2023-03-16T15:15:32.889Z,10.42
2023-03-16T15:20:41.620Z,10.42
2023-03-16T15:25:50.809Z,10.41
2023-03-16T15:31:06.662Z,10.45
2023-03-16T15:36:17.516Z,10.40
2023-03-16T15:41:23.173Z,10.34
2023-03-16T15:46:30.271Z,10.30
2023-03-16T15:51:38.471Z,10.27
2023-03-16T15:56:54.434Z,10.20
2023-03-16T16:02:01.530Z,10.17
2023-03-16T16:07:12.149Z,10.17
2023-03-16T16:12:19.667Z,10.15
2023-03-16T16:17:53.860Z,10.15
2023-03-16T16:23:08.381Z,10.14
2023-03-16T16:28:16.979Z,10.12
2023-03-16T16:33:31.415Z,10.10
2023-03-16T16:38:36.256Z,10.12
2023-03-16T16:43:44.653Z,10.14
2023-03-16T16:49:19.873Z,10.20
2023-03-16T16:54:27.921Z,10.16
2023-03-16T16:59:35.125Z,10.11
2023-03-16T17:04:40.762Z,10.06
2023-03-16T17:09:45.973Z,9.99
2023-03-16T17:14:50.191Z,9.94
2023-03-16T17:19:59.382Z,9.90
2023-03-16T17:25:25.234Z,9.87
2023-03-16T17:30:33.798Z,9.81
2023-03-16T17:35:43.770Z,9.84
2023-03-16T17:40:53.553Z,9.85
2023-03-16T17:45:58.852Z,9.83
2023-03-16T17:51:03.483Z,9.82
2023-03-16T17:56:19.306Z,9.79
2023-03-16T18:01:26.719Z,9.72
2023-03-16T18:06:36.365Z,9.60
2023-03-16T18:11:49.562Z,9.48
2023-03-16T18:16:55.345Z,9.39
2023-03-16T18:22:02.622Z,9.31
2023-03-16T18:27:09.312Z,9.22
2023-03-16T18:32:24.159Z,9.18
2023-03-16T18:37:32.383Z,9.15
2023-03-16T18:42:39.451Z,9.11
2023-03-16T18:47:55.780Z,9.07
2023-03-16T18:53:03.546Z,8.99
2023-03-16T18:58:17.429Z,8.98
2023-03-16T19:03:30.085Z,8.90
2023-03-16T19:08:35.441Z,8.82
2023-03-16T19:13:42.803Z,8.81
2023-03-16T19:18:49.978Z,8.77
2023-03-16T19:23:58.887Z,8.73
2023-03-16T19:29:04.932Z,8.66
2023-03-16T19:34:20.052Z,8.57
2023-03-16T19:39:24.360Z,8.45
2023-03-16T19:44:32.268Z,8.40
2023-03-16T19:49:36.867Z,8.36
2023-03-16T19:54:46.994Z,8.34
2023-03-16T20:00:01.335Z,8.34
2023-03-16T20:05:21.845Z,8.33
2023-03-16T20:10:39.778Z,8.30
2023-03-16T20:15:48.063Z,8.23
2023-03-16T20:20:52.166Z,8.20
2023-03-16T20:26:01.381Z,8.13
2023-03-16T20:31:18.657Z,8.07
2023-03-16T20:36:23.974Z,7.98
2023-03-16T20:41:37.233Z,7.90
2023-03-16T20:46:45.737Z,7.82
2023-03-16T20:51:53.609Z,7.69
2023-03-16T20:56:57.628Z,7.59
2023-03-16T21:02:40.242Z,7.50
2023-03-16T21:07:47.171Z,7.39
2023-03-16T21:12:56.905Z,7.32
2023-03-16T21:18:05.152Z,7.27
2023-03-16T21:23:16.314Z,7.22
2023-03-16T21:28:22.018Z,7.15
2023-03-16T21:33:36.769Z,7.09
2023-03-16T21:38:55.278Z,7.01
2023-03-16T21:43:58.819Z,6.96
2023-03-16T21:49:15.295Z,6.89
2023-03-16T21:54:25.899Z,6.82
2023-03-16T21:59:32.462Z,6.76
2023-03-16T22:04:45.208Z,6.70
2023-03-16T22:09:54.228Z,6.67
2023-03-16T22:15:03.202Z,6.62
2023-03-16T22:20:18.864Z,6.61
2023-03-16T22:25:27.982Z,6.60
2023-03-16T22:30:33.795Z,6.58
2023-03-16T22:35:40.604Z,6.57
2023-03-16T22:40:47.926Z,6.55
2023-03-16T22:45:57.760Z,6.53
2023-03-16T22:51:05.859Z,6.50
2023-03-16T22:56:12.081Z,6.46
2023-03-16T23:01:20.906Z,6.42
2023-03-16T23:06:30.230Z,6.39
2023-03-16T23:11:36.129Z,6.33
2023-03-16T23:16:43.336Z,6.28
2023-03-16T23:21:49.978Z,6.24
2023-03-16T23:27:03.994Z,6.19
2023-03-16T23:32:09.542Z,6.14
2023-03-16T23:37:16.604Z,6.09
2023-03-16T23:42:20.737Z,6.05
2023-03-16T23:47:27.448Z,6.01
2023-03-16T23:52:35.711Z,5.98
2023-03-16T23:57:45.417Z,5.95
